Time;durP1;ratioP1;P1;durP2;ratioP2;P2;SDS_P1;SDS_P2;PMS_P1;PMS_P2;Temp;Humidity;BMP_temperature;BMP_pressure;BME280_temperature;BME280_humidity;BME280_pressure;Samples;Min_cycle;Max_cycle;Signal;HPM_P1;HPM_P2
2022/08/25 00:04:26;;;;;;;4.38;3.40;;;21.10;99.90;;;;;;10538377;28;20199;-77
2022/08/25 00:09:47;;;;;;;8.85;3.33;;;20.90;99.90;;;;;;10558937;28;20191;-77
2022/08/25 00:15:11;;;;;;;5.15;3.42;;;;;;;;;;10522528;28;20191;-75
2022/08/25 00:20:32;;;;;;;5.60;3.22;;;21.10;99.90;;;;;;10521386;28;20242;-77
2022/08/25 00:25:54;;;;;;;5.35;3.35;;;21.00;99.90;;;;;;10521825;28;20218;-77
2022/08/25 00:31:18;;;;;;;5.32;3.25;;;21.00;99.90;;;;;;10520414;28;20199;-78
2022/08/25 00:36:40;;;;;;;6.28;3.85;;;21.00;99.90;;;;;;10521306;28;20265;-77
2022/08/25 00:42:03;;;;;;;8.95;3.78;;;21.00;99.90;;;;;;10520701;28;20187;-77
2022/08/25 00:47:24;;;;;;;8.48;3.50;;;21.00;99.90;;;;;;10506270;28;20234;-75
2022/08/25 00:52:49;;;;;;;10.00;3.90;;;20.90;99.90;;;;;;10521133;28;20226;-77
2022/08/25 00:58:19;;;;;;;4.35;3.42;;;20.90;99.90;;;;;;10519682;28;20203;-75
2022/08/25 01:03:40;;;;;;;5.70;3.58;;;20.90;99.90;;;;;;10529586;28;20194;-77
2022/08/25 01:09:03;;;;;;;6.88;3.33;;;20.90;99.90;;;;;;10560958;28;20323;-77
2022/08/25 01:14:25;;;;;;;8.45;3.40;;;20.80;99.90;;;;;;10478984;28;20360;-78
2022/08/25 01:19:47;;;;;;;8.10;4.05;;;20.90;99.90;;;;;;10478565;28;20228;-76
2022/08/25 01:25:46;;;;;;;8.52;3.42;;;20.90;99.90;;;;;;10478183;28;20191;-76
2022/08/25 01:31:08;;;;;;;9.70;4.30;;;20.90;99.90;;;;;;10495792;28;20274;-76
2022/08/25 01:36:30;;;;;;;5.95;3.28;;;20.80;99.90;;;;;;10519706;28;20278;-76
2022/08/25 01:42:08;;;;;;;8.05;3.78;;;20.80;99.90;;;;;;10519905;28;20237;-76
2022/08/25 01:47:30;;;;;;;7.30;3.65;;;20.70;99.90;;;;;;10519785;28;20219;-77
2022/08/25 01:53:27;;;;;;;15.15;4.00;;;20.60;99.90;;;;;;10519442;28;20194;-77
2022/08/25 01:58:48;;;;;;;5.68;3.25;;;20.50;99.90;;;;;;10519592;28;20191;-76
2022/08/25 02:04:11;;;;;;;8.90;3.95;;;20.40;99.90;;;;;;10532250;28;20234;-77
2022/08/25 02:09:33;;;;;;;6.70;3.97;;;20.40;99.90;;;;;;10557835;28;20216;-79
2022/08/25 02:14:54;;;;;;;5.90;3.42;;;20.40;99.90;;;;;;10518024;28;20205;-78
2022/08/25 02:20:16;;;;;;;6.47;3.30;;;20.40;99.90;;;;;;10518771;28;20302;-81
2022/08/25 02:25:39;;;;;;;5.00;2.58;;;20.40;99.90;;;;;;10518279;28;20250;-77
2022/08/25 02:31:01;;;;;;;4.82;3.03;;;20.40;99.90;;;;;;10518911;28;20197;-77
2022/08/25 02:36:22;;;;;;;11.60;2.85;;;20.50;99.90;;;;;;10524292;28;20245;-78
2022/08/25 02:41:44;;;;;;;6.65;2.92;;;20.50;99.90;;;;;;10526403;28;20187;-77
2022/08/25 02:47:06;;;;;;;5.63;3.25;;;20.50;99.90;;;;;;10525725;28;20223;-80
2022/08/25 02:52:27;;;;;;;2.92;2.10;;;20.50;99.90;;;;;;10525782;28;20187;-79
2022/08/25 02:57:49;;;;;;;3.92;2.50;;;20.50;99.90;;;;;;10525724;28;20465;-78
2022/08/25 03:03:11;;;;;;;4.05;2.45;;;20.50;99.90;;;;;;10528800;28;20204;-79
2022/08/25 03:08:32;;;;;;;4.97;2.40;;;20.50;99.90;;;;;;10567364;28;20215;-80
2022/08/25 03:13:55;;;;;;;7.00;2.65;;;20.50;99.90;;;;;;10526055;28;20238;-76
2022/08/25 03:19:16;;;;;;;4.07;2.53;;;20.50;99.90;;;;;;10524699;28;20442;-78
2022/08/25 03:24:38;;;;;;;4.15;3.10;;;20.50;99.90;;;;;;10524196;28;20188;-76
2022/08/25 03:30:01;;;;;;;6.70;3.50;;;20.60;99.90;;;;;;10524454;28;20520;-77
2022/08/25 03:35:23;;;;;;;5.65;3.25;;;20.60;99.90;;;;;;10524283;28;20423;-77
2022/08/25 03:40:44;;;;;;;4.80;3.20;;;20.50;99.90;;;;;;10524241;28;20195;-76
2022/08/25 03:46:06;;;;;;;6.68;3.45;;;20.40;99.90;;;;;;10523089;28;20517;-77
2022/08/25 03:51:34;;;;;;;5.10;2.95;;;20.50;99.90;;;;;;10523590;28;20304;-77
2022/08/25 03:56:55;;;;;;;6.15;3.00;;;20.50;99.90;;;;;;10523393;28;20195;-77
2022/08/25 04:02:16;;;;;;;3.65;2.92;;;20.50;99.90;;;;;;10521654;28;20226;-76
2022/08/25 04:07:38;;;;;;;4.88;3.20;;;20.50;99.90;;;;;;10481650;28;20220;-75
2022/08/25 04:13:00;;;;;;;8.38;3.20;;;20.50;99.90;;;;;;10512982;28;20195;-76
2022/08/25 04:18:21;;;;;;;8.23;3.95;;;20.40;99.90;;;;;;10522217;28;20191;-78
2022/08/25 04:23:44;;;;;;;7.28;3.67;;;20.40;99.90;;;;;;10530948;28;20414;-77
2022/08/25 04:29:09;;;;;;;10.32;3.95;;;20.40;99.90;;;;;;10533928;28;20221;-75
2022/08/25 04:34:30;;;;;;;5.45;3.05;;;20.50;99.90;;;;;;10521684;28;20482;-76
2022/08/25 04:39:51;;;;;;;8.02;4.50;;;20.50;99.90;;;;;;10520279;28;20461;-76
2022/08/25 04:45:12;;;;;;;9.48;4.07;;;20.50;99.90;;;;;;10520242;28;20191;-78
2022/08/25 04:50:38;;;;;;;10.43;5.13;;;20.50;99.90;;;;;;10521346;28;20191;-78
2022/08/25 04:56:00;;;;;;;9.68;4.15;;;20.50;99.90;;;;;;10520840;28;20195;-77
2022/08/25 05:01:25;;;;;;;7.45;4.28;;;20.50;99.90;;;;;;10520171;28;20270;-77
2022/08/25 05:06:46;;;;;;;7.50;3.70;;;20.50;99.90;;;;;;10555509;28;20396;-78
2022/08/25 05:12:08;;;;;;;11.48;4.68;;;20.60;99.90;;;;;;10537030;28;20201;-76
2022/08/25 05:17:30;;;;;;;8.82;4.25;;;20.70;99.90;;;;;;10505536;28;20386;-77
2022/08/25 05:22:51;;;;;;;6.78;3.60;;;20.80;99.90;;;;;;10519236;28;20530;-80
2022/08/25 05:28:13;;;;;;;10.00;4.25;;;20.90;99.90;;;;;;10519949;28;20223;-78
2022/08/25 05:33:37;;;;;;;8.07;4.22;;;21.00;99.90;;;;;;10518807;28;20195;-78
2022/08/25 05:38:58;;;;;;;8.48;3.95;;;21.10;99.90;;;;;;10518935;28;20502;-75
2022/08/25 05:44:20;;;;;;;9.82;4.80;;;21.30;99.90;;;;;;10518378;28;20244;-78
2022/08/25 05:49:41;;;;;;;11.07;4.50;;;21.40;99.90;;;;;;10519675;28;20222;-78
2022/08/25 05:55:03;;;;;;;7.28;3.80;;;21.60;99.90;;;;;;10519726;28;20194;-80
2022/08/25 06:00:25;;;;;;;8.90;3.85;;;21.70;99.90;;;;;;10519192;28;20191;-77
2022/08/25 06:05:46;;;;;;;10.35;4.40;;;21.90;99.90;;;;;;10544616;28;20194;-80
2022/08/25 06:11:08;;;;;;;11.05;4.90;;;22.00;99.90;;;;;;10550061;28;20209;-78
2022/08/25 06:16:29;;;;;;;10.38;4.25;;;22.10;99.90;;;;;;10527460;28;20266;-80
2022/08/25 06:21:55;;;;;;;13.73;4.57;;;22.30;99.90;;;;;;10525636;28;20242;-78
2022/08/25 06:27:17;;;;;;;8.98;3.55;;;23.10;99.90;;;;;;10511328;28;20239;-78
2022/08/25 06:32:40;;;;;;;11.75;3.88;;;23.20;99.90;;;;;;10526501;28;20439;-76
2022/08/25 06:38:01;;;;;;;12.65;4.18;;;23.60;99.90;;;;;;10525409;28;20383;-76
2022/08/25 06:43:23;;;;;;;10.43;4.10;;;23.60;99.90;;;;;;10526298;28;20202;-76
2022/08/25 06:48:44;;;;;;;6.95;3.38;;;23.50;99.90;;;;;;10524820;28;20226;-77
2022/08/25 06:54:08;;;;;;;7.28;4.00;;;23.70;99.90;;;;;;10524286;28;20206;-76
2022/08/25 06:59:30;;;;;;;12.15;4.32;;;23.80;99.90;;;;;;10525511;28;20411;-76
2022/08/25 07:04:53;;;;;;;16.40;5.32;;;24.40;99.90;;;;;;10537586;28;20194;-77
2022/08/25 07:10:14;;;;;;;11.38;5.40;;;24.40;99.90;;;;;;10557928;28;20257;-79
2022/08/25 07:15:41;;;;;;;15.35;6.78;;;24.40;99.90;;;;;;10523903;28;20199;-77
2022/08/25 07:21:02;;;;;;;11.70;4.95;;;24.00;99.90;;;;;;10523514;28;20272;-77
2022/08/25 07:26:28;;;;;;;7.20;3.60;;;23.70;99.90;;;;;;10524317;28;20290;-77
2022/08/25 07:31:58;;;;;;;7.68;3.90;;;23.50;99.90;;;;;;10524208;28;20501;-77
2022/08/25 07:37:21;;;;;;;7.03;3.70;;;23.50;99.90;;;;;;10523855;28;20214;-76
2022/08/25 07:43:06;;;;;;;11.55;3.88;;;23.70;99.90;;;;;;10522768;28;20244;-76
2022/08/25 07:48:27;;;;;;;10.60;3.78;;;23.90;99.90;;;;;;10523310;28;20265;-77
2022/08/25 07:53:50;;;;;;;11.02;4.47;;;24.00;99.90;;;;;;10523114;28;20194;-77
2022/08/25 07:59:11;;;;;;;8.35;3.90;;;24.10;99.90;;;;;;10521805;28;20203;-77
2022/08/25 08:04:35;;;;;;;6.15;3.63;;;24.20;99.90;;;;;;10539131;28;20231;-77
2022/08/25 08:09:57;;;;;;;10.02;4.22;;;24.40;99.90;;;;;;10556788;28;20231;-76
2022/08/25 08:15:32;;;;;;;11.93;4.53;;;24.60;99.90;;;;;;10522484;28;20250;-76
2022/08/25 08:20:53;;;;;;;9.63;3.08;;;24.70;99.90;;;;;;10520776;28;20545;-78
2022/08/25 08:26:15;;;;;;;14.85;4.97;;;24.60;99.90;;;;;;10520790;28;20219;-77
2022/08/25 08:31:36;;;;;;;14.82;4.10;;;24.60;99.90;;;;;;10521688;28;20398;-77
2022/08/25 08:36:58;;;;;;;12.25;4.43;;;24.40;99.90;;;;;;10520128;28;20195;-77
2022/08/25 08:42:52;;;;;;;11.30;5.13;;;24.70;99.90;;;;;;10521464;28;20205;-77
2022/08/25 08:48:45;;;;;;;9.32;4.70;;;25.40;99.90;;;;;;10521310;28;20533;-78
2022/08/25 08:54:12;;;;;;;11.45;3.70;;;26.00;99.90;;;;;;10491734;28;20195;-82
2022/08/25 08:59:43;;;;;;;10.70;4.47;;;26.40;99.90;;;;;;10520880;28;20202;-81
2022/08/25 09:05:11;;;;;;;11.95;4.18;;;27.20;99.90;;;;;;10535978;28;20194;-77
2022/08/25 09:11:00;;;;;;;7.45;3.67;;;27.20;99.90;;;;;;10550709;28;20229;-79
2022/08/25 09:16:54;;;;;;;14.18;4.07;;;26.90;99.90;;;;;;10520384;28;20210;-78
2022/08/25 09:23:01;;;;;;;8.00;3.80;;;27.40;99.90;;;;;;10518733;28;20447;-77
2022/08/25 09:28:31;;;;;;;15.80;4.78;;;28.20;97.50;;;;;;10505037;28;20211;-79
2022/08/25 09:33:56;;;;;;;10.32;3.65;;;29.40;94.20;;;;;;10519475;28;20195;-78
2022/08/25 09:39:18;;;;;;;15.85;4.45;;;29.60;91.20;;;;;;10518488;28;20209;-77
2022/08/25 09:44:42;;;;;;;12.65;4.10;;;29.00;92.20;;;;;;10519017;28;20354;-78
2022/08/25 09:50:04;;;;;;;13.00;4.47;;;28.70;93.60;;;;;;10518267;28;20583;-81
2022/08/25 09:55:30;;;;;;;15.15;4.22;;;29.10;92.40;;;;;;10518059;28;20229;-78
2022/08/25 10:01:06;;;;;;;13.52;4.18;;;28.80;92.90;;;;;;10518991;28;20195;-79
2022/08/25 10:06:33;;;;;;;10.35;4.63;;;28.90;93.20;;;;;;10551059;28;20210;-80
2022/08/25 10:11:55;;;;;;;12.40;3.55;;;28.80;93.00;;;;;;10522361;28;20203;-79
2022/08/25 10:17:29;;;;;;;16.38;4.20;;;29.30;90.30;;;;;;10518933;28;20202;-78
2022/08/25 10:23:04;;;;;;;17.30;4.95;;;29.80;90.40;;;;;;10518690;28;20231;-79
2022/08/25 10:28:39;;;;;;;14.65;5.60;;;29.40;90.40;;;;;;10517740;28;20586;-79
2022/08/25 10:34:28;;;;;;;14.32;5.80;;;29.30;91.30;;;;;;10519060;28;20192;-80
2022/08/25 10:40:48;;;;;;;7.45;3.72;;;29.40;91.20;;;;;;10521959;28;20212;-81
2022/08/25 10:46:28;;;;;;;13.45;4.45;;;30.10;89.90;;;;;;10459259;28;20224;-81
2022/08/25 10:52:02;;;;;;;21.02;6.07;;;31.30;73.50;;;;;;10473429;28;20392;-81
2022/08/25 10:57:44;;;;;;;16.20;4.85;;;32.20;64.30;;;;;;10460816;28;20218;-82
2022/08/25 11:03:17;;;;;;;16.55;4.97;;;32.40;57.40;;;;;;10480002;28;20212;-79
2022/08/25 11:08:52;;;;;;;17.15;5.70;;;32.80;54.10;;;;;;10480331;28;20247;-79
2022/08/25 11:14:45;;;;;;;14.57;5.15;;;33.30;50.80;;;;;;10438477;28;20204;-80
2022/08/25 11:20:12;;;;;;;9.93;3.85;;;32.50;49.30;;;;;;10460264;28;20552;-79
2022/08/25 11:25:41;;;;;;;14.75;6.20;;;32.20;53.40;;;;;;10483552;28;20192;-82
2022/08/25 11:31:03;;;;;;;19.15;7.20;;;32.40;52.90;;;;;;10501814;28;20223;-80
2022/08/25 11:36:34;;;;;;;18.63;8.57;;;32.50;51.10;;;;;;10526301;28;20191;-79
2022/08/25 11:42:13;;;;;;;19.95;5.10;;;32.10;54.40;;;;;;10524197;28;20208;-77
2022/08/25 11:47:57;;;;;;;18.38;8.50;;;31.90;54.90;;;;;;10523540;28;20215;-77
2022/08/25 11:53:28;;;;;;;16.98;6.72;;;32.10;54.70;;;;;;10523573;28;20262;-78
2022/08/25 11:58:50;;;;;;;19.08;5.50;;;32.20;54.10;;;;;;10523473;28;20195;-79
2022/08/25 12:04:32;;;;;;;9.57;4.85;;;31.60;58.90;;;;;;10535904;28;20214;-77
2022/08/25 12:09:53;;;;;;;25.95;5.18;;;31.70;61.40;;;;;;10558324;28;20211;-78
2022/08/25 12:15:28;;;;;;;13.45;5.15;;;32.20;53.70;;;;;;10521371;28;20195;-77
2022/08/25 12:20:55;;;;;;;15.63;7.63;;;32.50;51.30;;;;;;10522337;28;20281;-77
2022/08/25 12:26:25;;;;;;;23.20;6.78;;;32.50;51.30;;;;;;10521259;28;20490;-79
2022/08/25 12:32:09;;;;;;;12.68;5.28;;;31.80;56.70;;;;;;10522065;28;20199;-79
2022/08/25 12:37:31;;;;;;;17.05;5.50;;;32.00;57.00;;;;;;10521840;28;20191;-77
2022/08/25 12:43:06;;;;;;;16.23;5.20;;;32.40;55.50;;;;;;10521562;28;20199;-77
2022/08/25 12:48:27;;;;;;;22.25;5.47;;;32.30;52.10;;;;;;10521308;28;20230;-78
2022/08/25 12:54:00;;;;;;;23.52;5.75;;;32.10;53.40;;;;;;10521014;28;20198;-78
2022/08/25 12:59:31;;;;;;;16.75;5.18;;;32.40;52.10;;;;;;10520667;28;20191;-77
2022/08/25 13:05:19;;;;;;;16.80;5.50;;;32.10;54.00;;;;;;10517875;28;20202;-77
2022/08/25 13:10:56;;;;;;;12.02;5.43;;;32.00;55.50;;;;;;10548319;28;20231;-78
2022/08/25 13:16:19;;;;;;;17.05;5.25;;;31.70;57.70;;;;;;10520402;28;20198;-77
2022/08/25 13:21:43;;;;;;;19.92;5.47;;;31.60;60.80;;;;;;10519376;28;20246;-78
2022/08/25 13:27:08;;;;;;;18.48;6.25;;;31.50;60.50;;;;;;10519728;28;20278;-78
2022/08/25 13:32:34;;;;;;;18.98;6.75;;;31.20;59.90;;;;;;10518659;28;20409;-78
2022/08/25 13:38:18;;;;;;;15.95;5.47;;;31.10;61.10;;;;;;10519944;28;20209;-80
2022/08/25 13:43:39;;;;;;;24.42;7.05;;;31.00;67.10;;;;;;10519581;28;20198;-80
2022/08/25 13:49:06;;;;;;;16.30;6.13;;;30.50;69.00;;;;;;10519477;28;20276;-79
2022/08/25 13:54:48;;;;;;;21.05;6.63;;;29.80;76.10;;;;;;10518554;28;20190;-77
2022/08/25 14:00:10;;;;;;;18.35;6.00;;;29.50;79.20;;;;;;10519466;28;20222;-78
2022/08/25 14:05:37;;;;;;;23.63;7.05;;;29.70;80.70;;;;;;10543314;28;20242;-77
2022/08/25 14:11:08;;;;;;;12.40;5.72;;;29.50;80.60;;;;;;10544815;28;20294;-77
2022/08/25 14:16:35;;;;;;;19.45;6.70;;;29.20;85.40;;;;;;10517553;28;20352;-77
2022/08/25 14:22:00;;;;;;;19.33;6.53;;;29.20;88.30;;;;;;10518423;28;20230;-77
2022/08/25 14:27:22;;;;;;;18.08;6.18;;;29.00;86.80;;;;;;10516916;28;20405;-78
2022/08/25 14:32:44;;;;;;;19.60;6.78;;;28.60;91.40;;;;;;10524553;28;20191;-77
2022/08/25 14:38:10;;;;;;;16.40;6.00;;;28.70;92.50;;;;;;10524398;28;20265;-78
2022/08/25 14:43:33;;;;;;;14.48;5.88;;;28.70;91.80;;;;;;10526316;28;20473;-78
2022/08/25 14:48:59;;;;;;;18.20;6.72;;;28.60;91.60;;;;;;10525776;28;20227;-77
2022/08/25 14:54:25;;;;;;;22.92;5.97;;;28.60;92.90;;;;;;10524126;28;20199;-78
2022/08/25 14:59:47;;;;;;;21.48;6.53;;;28.70;93.50;;;;;;10525445;28;20191;-77
2022/08/25 15:05:11;;;;;;;22.65;6.90;;;28.50;93.50;;;;;;10546718;28;20186;-77
2022/08/25 15:10:32;;;;;;;13.65;5.60;;;28.40;94.50;;;;;;10555343;28;20571;-77
2022/08/25 15:15:54;;;;;;;16.50;5.80;;;28.30;95.50;;;;;;10524907;28;20198;-77
2022/08/25 15:21:16;;;;;;;18.77;5.45;;;28.20;96.50;;;;;;10524609;28;20243;-77
2022/08/25 15:26:58;;;;;;;17.98;5.13;;;28.10;96.70;;;;;;10524858;28;20187;-80
2022/08/25 15:32:19;;;;;;;22.70;6.88;;;27.90;97.00;;;;;;10523598;28;20248;-81
2022/08/25 15:37:41;;;;;;;15.82;6.50;;;27.70;97.40;;;;;;10523218;28;20448;-78
2022/08/25 15:43:02;;;;;;;14.73;6.32;;;27.50;98.90;;;;;;10523051;28;20218;-76
2022/08/25 15:48:24;;;;;;;16.50;5.70;;;27.40;99.40;;;;;;10523719;28;20447;-78
2022/08/25 15:53:45;;;;;;;15.70;5.72;;;27.20;99.20;;;;;;10508182;28;20374;-77
2022/08/25 15:59:07;;;;;;;15.10;5.68;;;27.00;99.80;;;;;;10523283;28;20509;-78
2022/08/25 16:04:29;;;;;;;13.38;5.45;;;26.80;99.90;;;;;;10538607;28;20241;-78
2022/08/25 16:09:53;;;;;;;14.52;5.45;;;26.80;99.90;;;;;;10557740;28;20218;-79
2022/08/25 16:15:15;;;;;;;7.72;4.47;;;26.70;99.90;;;;;;10522515;28;20215;-77
2022/08/25 16:20:36;;;;;;;10.57;5.70;;;26.50;99.90;;;;;;10521909;28;20231;-77
2022/08/25 16:25:57;;;;;;;15.65;6.63;;;26.40;99.90;;;;;;10521113;28;20373;-77
2022/08/25 16:31:19;;;;;;;15.15;6.47;;;26.30;99.90;;;;;;10520556;28;20456;-77
2022/08/25 16:36:40;;;;;;;12.77;5.18;;;26.20;99.90;;;;;;10521486;28;20191;-78
2022/08/25 16:42:02;;;;;;;8.30;4.90;;;26.00;99.90;;;;;;10521619;28;20207;-78
2022/08/25 16:47:23;;;;;;;11.70;5.45;;;25.90;99.90;;;;;;10520566;28;20214;-77
2022/08/25 16:58:24;;;;;;;11.57;5.63;;;25.70;99.90;;;;;;10520715;28;20245;-78
2022/08/25 17:03:45;;;;;;;14.15;6.47;;;25.60;99.90;;;;;;10530068;28;20194;-78
2022/08/25 17:09:09;;;;;;;13.00;5.53;;;25.50;99.90;;;;;;10561331;28;20248;-77
2022/08/25 17:14:30;;;;;;;8.20;5.45;;;25.40;99.90;;;;;;10479167;28;20188;-77
2022/08/25 17:19:52;;;;;;;15.73;6.15;;;25.30;99.90;;;;;;10478686;28;20250;-77
2022/08/25 17:25:14;;;;;;;12.98;6.38;;;25.00;99.90;;;;;;10477810;28;20210;-78
2022/08/25 17:30:37;;;;;;;11.30;6.78;;;25.00;99.90;;;;;;10491841;28;20576;-76
2022/08/25 17:35:59;;;;;;;15.95;6.65;;;24.90;99.90;;;;;;10519836;28;20191;-80
2022/08/25 17:41:20;;;;;;;14.23;6.65;;;24.80;99.90;;;;;;10521042;28;20210;-77
2022/08/25 17:46:42;;;;;;;13.30;6.85;;;24.70;99.90;;;;;;10519186;28;20194;-79
2022/08/25 17:52:04;;;;;;;11.70;6.60;;;24.50;99.90;;;;;;10518667;28;20227;-80
2022/08/25 17:57:26;;;;;;;11.48;6.63;;;24.30;99.90;;;;;;10504302;28;20195;-75
2022/08/25 18:02:48;;;;;;;14.27;6.97;;;24.30;99.90;;;;;;10505740;28;20234;-81
2022/08/25 18:08:09;;;;;;;17.05;8.45;;;24.20;99.90;;;;;;10568790;28;20220;-79
2022/08/25 18:13:31;;;;;;;21.48;9.60;;;;;;;;;;10533057;28;20198;-78
2022/08/25 18:18:53;;;;;;;16.63;8.15;;;23.90;99.90;;;;;;10527255;28;20191;-77
2022/08/25 18:24:15;;;;;;;17.45;8.98;;;23.70;99.90;;;;;;10527493;28;20481;-81
2022/08/25 18:29:37;;;;;;;15.75;7.80;;;23.60;99.90;;;;;;10526774;28;20290;-77
2022/08/25 18:34:58;;;;;;;12.70;8.50;;;23.60;99.90;;;;;;10527195;28;20191;-81
2022/08/25 18:40:23;;;;;;;11.80;8.75;;;23.40;99.90;;;;;;10527015;28;20432;-78
2022/08/25 18:45:48;;;;;;;17.52;8.80;;;23.30;99.90;;;;;;10525096;28;20375;-76
2022/08/25 18:51:10;;;;;;;18.70;9.48;;;23.20;99.90;;;;;;10525894;28;20238;-78
2022/08/25 18:56:33;;;;;;;15.20;8.25;;;23.10;99.90;;;;;;10510911;28;20206;-78
2022/08/25 19:01:55;;;;;;;12.90;8.13;;;23.00;99.90;;;;;;10525604;28;20223;-76
2022/08/25 19:07:18;;;;;;;17.08;8.73;;;22.90;99.90;;;;;;10564200;28;20191;-79
2022/08/25 19:12:39;;;;;;;17.23;8.73;;;22.90;99.90;;;;;;10537839;28;20219;-79
2022/08/25 19:18:01;;;;;;;15.68;8.57;;;;;;;;;;10522931;28;20203;-78
2022/08/25 19:23:24;;;;;;;17.65;10.10;;;22.90;99.90;;;;;;10524078;28;20230;-76
2022/08/25 19:28:46;;;;;;;17.23;8.50;;;22.90;99.90;;;;;;10509554;28;20227;-77
2022/08/25 19:34:11;;;;;;;15.05;8.48;;;22.80;99.90;;;;;;10524709;28;20259;-79
2022/08/25 19:39:34;;;;;;;14.10;7.15;;;22.70;99.90;;;;;;10523616;28;20245;-76
2022/08/25 19:44:56;;;;;;;19.88;7.50;;;22.80;99.90;;;;;;10508844;28;20195;-77
2022/08/25 19:50:18;;;;;;;11.20;7.10;;;22.80;99.90;;;;;;10508810;28;20218;-76
2022/08/25 19:55:41;;;;;;;15.45;6.80;;;22.80;99.90;;;;;;10523783;28;20240;-75
2022/08/25 20:01:03;;;;;;;12.88;6.70;;;22.80;99.90;;;;;;10522349;28;20203;-76
2022/08/25 20:06:25;;;;;;;17.17;7.25;;;22.70;99.90;;;;;;10554243;28;20195;-77
2022/08/25 20:11:46;;;;;;;24.80;8.45;;;22.70;99.90;;;;;;10542907;28;20227;-77
2022/08/25 20:17:08;;;;;;;16.50;7.78;;;22.60;99.90;;;;;;10522729;28;20240;-77
2022/08/25 20:22:31;;;;;;;17.25;6.93;;;22.60;99.90;;;;;;10522422;28;20230;-77
2022/08/25 20:27:54;;;;;;;11.68;6.90;;;22.60;99.90;;;;;;10521838;28;20226;-76
2022/08/25 20:33:17;;;;;;;20.13;7.07;;;22.60;99.90;;;;;;10521942;28;20207;-76
2022/08/25 20:38:39;;;;;;;12.13;7.13;;;22.50;99.90;;;;;;10522105;28;20213;-77
2022/08/25 20:44:01;;;;;;;17.42;7.43;;;22.50;99.90;;;;;;10521718;28;20201;-77
2022/08/25 20:49:25;;;;;;;15.02;7.32;;;22.50;99.90;;;;;;10520499;28;20223;-77
2022/08/25 20:54:47;;;;;;;20.33;7.45;;;22.40;99.90;;;;;;10519992;28;20266;-77
2022/08/25 21:00:09;;;;;;;14.63;6.65;;;22.40;99.90;;;;;;10520342;28;20226;-76
2022/08/25 21:05:30;;;;;;;14.77;7.30;;;22.40;99.90;;;;;;10544345;28;20192;-77
2022/08/25 21:10:52;;;;;;;16.13;7.63;;;;;;;;;;10547407;28;20218;-77
2022/08/25 21:16:13;;;;;;;14.50;8.30;;;22.20;99.90;;;;;;10520621;28;20528;-76
2022/08/25 21:21:37;;;;;;;16.40;8.15;;;22.20;99.90;;;;;;10519411;28;20298;-76
2022/08/25 21:26:58;;;;;;;11.80;6.85;;;22.20;99.90;;;;;;10520010;28;20262;-77
2022/08/25 21:32:20;;;;;;;14.88;7.55;;;22.20;99.90;;;;;;10519992;28;20219;-77
2022/08/25 21:37:41;;;;;;;22.35;11.07;;;22.10;99.90;;;;;;10519930;28;20203;-76
2022/08/25 21:43:03;;;;;;;18.50;10.15;;;;;;;;;;10519440;28;20214;-77
2022/08/25 21:48:25;;;;;;;18.58;8.77;;;22.00;99.90;;;;;;10518985;28;20231;-76
2022/08/25 21:53:46;;;;;;;18.05;8.98;;;22.00;99.90;;;;;;10519442;28;20182;-76
2022/08/25 21:59:13;;;;;;;17.92;8.73;;;22.00;99.90;;;;;;10519607;28;20195;-76
2022/08/25 22:04:37;;;;;;;18.25;9.25;;;22.00;99.90;;;;;;10535117;28;20271;-77
2022/08/25 22:09:58;;;;;;;15.55;7.88;;;22.00;99.90;;;;;;10538773;28;20234;-77
2022/08/25 22:15:20;;;;;;;13.68;8.07;;;22.00;99.90;;;;;;10504223;28;20290;-76
2022/08/25 22:20:41;;;;;;;16.50;8.38;;;21.90;99.90;;;;;;10519130;28;20248;-76
2022/08/25 22:26:03;;;;;;;15.88;7.50;;;22.00;99.90;;;;;;10518935;28;20194;-77
2022/08/25 22:31:26;;;;;;;13.18;8.55;;;22.00;99.90;;;;;;10518784;28;20231;-76
2022/08/25 22:36:47;;;;;;;10.98;7.35;;;21.80;99.90;;;;;;10517778;28;20192;-77
2022/08/25 22:42:09;;;;;;;15.63;8.23;;;21.90;99.90;;;;;;10518967;28;20385;-77
2022/08/25 22:47:30;;;;;;;11.98;7.47;;;21.90;99.90;;;;;;10517748;28;20199;-76
2022/08/25 22:52:51;;;;;;;13.45;6.95;;;21.90;99.90;;;;;;10523266;28;20543;-76
2022/08/25 22:58:13;;;;;;;10.73;6.78;;;21.90;99.90;;;;;;10525172;28;20191;-76
2022/08/25 23:03:34;;;;;;;11.27;6.82;;;21.90;99.90;;;;;;10533935;28;20194;-76
2022/08/25 23:08:57;;;;;;;12.60;7.40;;;22.00;99.90;;;;;;10567310;28;20210;-76
2022/08/25 23:14:18;;;;;;;10.65;7.07;;;21.90;99.90;;;;;;10484181;28;20259;-77
2022/08/25 23:19:40;;;;;;;16.33;8.50;;;22.00;99.90;;;;;;10499033;28;20310;-76
2022/08/25 23:25:01;;;;;;;16.77;7.47;;;21.90;99.90;;;;;;10485056;28;20552;-77
2022/08/25 23:30:22;;;;;;;10.60;7.18;;;21.90;99.90;;;;;;10493860;28;20227;-76
2022/08/25 23:35:44;;;;;;;11.35;6.97;;;21.80;99.90;;;;;;10524355;28;20383;-76
2022/08/25 23:41:06;;;;;;;10.80;7.63;;;;;;;;;;10524448;28;20419;-77
2022/08/25 23:46:28;;;;;;;13.52;7.18;;;21.70;99.90;;;;;;10524153;28;20380;-76
2022/08/25 23:51:51;;;;;;;11.15;6.68;;;21.70;99.90;;;;;;10522792;28;20293;-76
2022/08/25 23:57:13;;;;;;;9.77;6.70;;;;;;;;;;10523826;28;20191;-76
